DAL2725 KMCO-KDCA
Flight info
| Callsign | DAL2725 |
|---|---|
| Flight time | N/A |
| Altitude | 37000 |
| Route | FATHE4 VIYAP Q87 RAYVO Q113 AARNN WAVES CAPSS4 |
| Aircraft | A319/M-SDE3FGHIRWY/LB1 |
Departure
| Time | 2026-05-07 00:49 |
|---|---|
| Airport | Orlando International Airport (KMCO) |
Arrival
| Time | N/A |
|---|---|
| Airport | Ronald Reagan Washington National Airport (KDCA) |
| Time | Latitude | Longitude | Altitude | Speed | Heading |
|---|---|---|---|---|---|
| 2026-05-07 00:39 | 28.42876 | -81.29987 | 103 ft | 0 kts | 258° |
| 2026-05-07 00:42 | 28.42878 | -81.29970 | 102 ft | 4 kts | 280° |
| 2026-05-07 00:42 | 28.42877 | -81.29940 | 100 ft | 4 kts | 263° |
| 2026-05-07 00:43 | 28.42883 | -81.29911 | 102 ft | 4 kts | 244° |
| 2026-05-07 00:43 | 28.42897 | -81.29890 | 103 ft | 4 kts | 195° |
| 2026-05-07 00:43 | 28.42910 | -81.29888 | 103 ft | 1 kts | 171° |
| 2026-05-07 00:43 | 28.42912 | -81.29889 | 101 ft | 0 kts | 171° |
| 2026-05-07 00:45 | 28.42912 | -81.29888 | 101 ft | 0 kts | 171° |
| 2026-05-07 00:45 | 28.42909 | -81.29886 | 102 ft | 0 kts | 144° |
| 2026-05-07 00:45 | 28.42906 | -81.29876 | 102 ft | 3 kts | 111° |
| 2026-05-07 00:46 | 28.42915 | -81.29830 | 102 ft | 9 kts | 66° |
| 2026-05-07 00:46 | 28.42976 | -81.29799 | 103 ft | 11 kts | 360° |
| 2026-05-07 00:46 | 28.43057 | -81.29799 | 103 ft | 12 kts | 360° |
| 2026-05-07 00:46 | 28.43140 | -81.29800 | 103 ft | 12 kts | 360° |
| 2026-05-07 00:47 | 28.43226 | -81.29801 | 103 ft | 13 kts | 359° |
| 2026-05-07 00:47 | 28.43316 | -81.29802 | 103 ft | 13 kts | 359° |
| 2026-05-07 00:47 | 28.43408 | -81.29802 | 104 ft | 13 kts | 8° |
| 2026-05-07 00:47 | 28.43449 | -81.29726 | 105 ft | 11 kts | 49° |
| 2026-05-07 00:48 | 28.43530 | -81.29704 | 103 ft | 13 kts | 24° |
| 2026-05-07 00:48 | 28.43549 | -81.29616 | 104 ft | 12 kts | 110° |
| 2026-05-07 00:48 | 28.43475 | -81.29586 | 106 ft | 16 kts | 180° |
| 2026-05-07 00:48 | 28.43111 | -81.29582 | 106 ft | 88 kts | 179° |
| 2026-05-07 00:49 | 28.42284 | -81.29572 | 99 ft | 147 kts | 179° |
| 2026-05-07 00:49 | 28.41170 | -81.29545 | 517 ft | 156 kts | 174° |
| 2026-05-07 00:49 | 28.40108 | -81.29484 | 1184 ft | 152 kts | 174° |
| 2026-05-07 00:49 | 28.39051 | -81.29406 | 1758 ft | 153 kts | 174° |
| 2026-05-07 00:50 | 28.37981 | -81.29091 | 2109 ft | 170 kts | 154° |
| 2026-05-07 00:50 | 28.36945 | -81.28336 | 2428 ft | 189 kts | 147° |
| 2026-05-07 00:50 | 28.35782 | -81.27458 | 2689 ft | 215 kts | 148° |
| 2026-05-07 00:50 | 28.34514 | -81.26382 | 3044 ft | 242 kts | 138° |
| 2026-05-07 00:51 | 28.33285 | -81.24941 | 3492 ft | 265 kts | 136° |
| 2026-05-07 00:51 | 28.32006 | -81.23380 | 4260 ft | 272 kts | 135° |
| 2026-05-07 00:51 | 28.30797 | -81.21701 | 5115 ft | 280 kts | 121° |
| 2026-05-07 00:51 | 28.30242 | -81.19570 | 5986 ft | 286 kts | 92° |
| 2026-05-07 00:52 | 28.30589 | -81.17371 | 6929 ft | 284 kts | 67° |
| 2026-05-07 00:52 | 28.31539 | -81.15456 | 7789 ft | 285 kts | 48° |
| 2026-05-07 00:52 | 28.33133 | -81.14142 | 8591 ft | 287 kts | 22° |
| 2026-05-07 00:52 | 28.35088 | -81.13674 | 9373 ft | 291 kts | 359° |
| 2026-05-07 00:53 | 28.37091 | -81.14067 | 10134 ft | 295 kts | 345° |
| 2026-05-07 00:53 | 28.39136 | -81.14707 | 10433 ft | 316 kts | 344° |
| 2026-05-07 00:53 | 28.41322 | -81.15401 | 10768 ft | 333 kts | 344° |
| 2026-05-07 00:53 | 28.43565 | -81.16112 | 11418 ft | 337 kts | 344° |
| 2026-05-07 00:54 | 28.45830 | -81.16827 | 12128 ft | 339 kts | 344° |
| 2026-05-07 00:54 | 28.48077 | -81.17535 | 12845 ft | 341 kts | 344° |
| 2026-05-07 00:54 | 28.50374 | -81.18255 | 13547 ft | 343 kts | 344° |
| 2026-05-07 00:54 | 28.52683 | -81.18975 | 14202 ft | 345 kts | 344° |
| 2026-05-07 00:55 | 28.55009 | -81.19701 | 14797 ft | 348 kts | 343° |
| 2026-05-07 00:55 | 28.57356 | -81.20437 | 15371 ft | 352 kts | 343° |
| 2026-05-07 00:55 | 28.59727 | -81.21183 | 15933 ft | 355 kts | 343° |
| 2026-05-07 00:55 | 28.62117 | -81.21933 | 16499 ft | 359 kts | 343° |
| 2026-05-07 00:56 | 28.64539 | -81.22691 | 17053 ft | 362 kts | 342° |
| 2026-05-07 00:56 | 28.66979 | -81.23455 | 17589 ft | 366 kts | 342° |
| 2026-05-07 00:56 | 28.69413 | -81.24220 | 18158 ft | 369 kts | 341° |
| 2026-05-07 00:56 | 28.71895 | -81.25005 | 18663 ft | 372 kts | 341° |
| 2026-05-07 00:57 | 28.74399 | -81.25796 | 19169 ft | 374 kts | 341° |
| 2026-05-07 00:57 | 28.76913 | -81.26588 | 19707 ft | 375 kts | 341° |
| 2026-05-07 00:57 | 28.79436 | -81.27382 | 20256 ft | 377 kts | 341° |
| 2026-05-07 00:57 | 28.81964 | -81.28176 | 20800 ft | 378 kts | 340° |
| 2026-05-07 00:58 | 28.84539 | -81.28852 | 21336 ft | 383 kts | 347° |
| 2026-05-07 00:58 | 28.87215 | -81.29110 | 21874 ft | 387 kts | 351° |
| 2026-05-07 00:58 | 28.89909 | -81.29335 | 22409 ft | 389 kts | 350° |
| 2026-05-07 00:58 | 28.92578 | -81.29561 | 22940 ft | 391 kts | 350° |
| 2026-05-07 00:59 | 28.98027 | -81.30026 | 23921 ft | 395 kts | 349° |
| 2026-05-07 00:59 | 29.00772 | -81.30270 | 24331 ft | 396 kts | 348° |
| 2026-05-07 00:59 | 29.03520 | -81.30554 | 24734 ft | 398 kts | 348° |
| 2026-05-07 01:00 | 29.06277 | -81.30870 | 25127 ft | 399 kts | 347° |
| 2026-05-07 01:00 | 29.09048 | -81.31198 | 25522 ft | 401 kts | 347° |
| 2026-05-07 01:00 | 29.11837 | -81.31514 | 25907 ft | 404 kts | 348° |
| 2026-05-07 01:00 | 29.14617 | -81.31748 | 26291 ft | 407 kts | 349° |
| 2026-05-07 01:01 | 29.17455 | -81.31919 | 26669 ft | 410 kts | 350° |
| 2026-05-07 01:01 | 29.20315 | -81.32061 | 27042 ft | 413 kts | 350° |
| 2026-05-07 01:01 | 29.23193 | -81.32196 | 27407 ft | 415 kts | 350° |
| 2026-05-07 01:01 | 29.26082 | -81.32341 | 27779 ft | 417 kts | 349° |
| 2026-05-07 01:02 | 29.28984 | -81.32501 | 28141 ft | 419 kts | 349° |
| 2026-05-07 01:02 | 29.31903 | -81.32672 | 28502 ft | 421 kts | 349° |
| 2026-05-07 01:02 | 29.34838 | -81.32847 | 28862 ft | 423 kts | 349° |
| 2026-05-07 01:02 | 29.37789 | -81.33027 | 29216 ft | 425 kts | 349° |
| 2026-05-07 01:03 | 29.40750 | -81.33212 | 29556 ft | 428 kts | 348° |
| 2026-05-07 01:03 | 29.43689 | -81.33396 | 29903 ft | 430 kts | 348° |
| 2026-05-07 01:03 | 29.46686 | -81.33579 | 30229 ft | 432 kts | 348° |
| 2026-05-07 01:03 | 29.49695 | -81.33761 | 30510 ft | 434 kts | 349° |
| 2026-05-07 01:04 | 29.52720 | -81.33943 | 30786 ft | 436 kts | 349° |
| 2026-05-07 01:04 | 29.55754 | -81.34125 | 31082 ft | 438 kts | 348° |
| 2026-05-07 01:04 | 29.58802 | -81.34307 | 31359 ft | 439 kts | 348° |
| 2026-05-07 01:04 | 29.61858 | -81.34490 | 31632 ft | 441 kts | 348° |
| 2026-05-07 01:05 | 29.64887 | -81.34674 | 31897 ft | 443 kts | 348° |
| 2026-05-07 01:05 | 29.67969 | -81.34856 | 32191 ft | 443 kts | 349° |
| 2026-05-07 01:05 | 29.71047 | -81.35029 | 32581 ft | 442 kts | 349° |
| 2026-05-07 01:05 | 29.74112 | -81.35199 | 32956 ft | 441 kts | 349° |
| 2026-05-07 01:06 | 29.77175 | -81.35370 | 33323 ft | 440 kts | 349° |
| 2026-05-07 01:06 | 29.80230 | -81.35541 | 33698 ft | 439 kts | 349° |
| 2026-05-07 01:06 | 29.83277 | -81.35716 | 34088 ft | 438 kts | 348° |
| 2026-05-07 01:06 | 29.86318 | -81.35894 | 34404 ft | 437 kts | 349° |
| 2026-05-07 01:07 | 29.89313 | -81.36069 | 34720 ft | 436 kts | 349° |
| 2026-05-07 01:07 | 29.92338 | -81.36244 | 35028 ft | 435 kts | 349° |
| 2026-05-07 01:07 | 29.95365 | -81.36415 | 35330 ft | 434 kts | 348° |
| 2026-05-07 01:07 | 29.98379 | -81.36585 | 35619 ft | 434 kts | 348° |
| 2026-05-07 01:08 | 30.01390 | -81.36758 | 35910 ft | 433 kts | 348° |
| 2026-05-07 01:08 | 30.04393 | -81.36932 | 36185 ft | 432 kts | 348° |
| 2026-05-07 01:08 | 30.07389 | -81.37108 | 36455 ft | 431 kts | 348° |
| 2026-05-07 01:08 | 30.10384 | -81.37283 | 36722 ft | 430 kts | 348° |
| 2026-05-07 01:09 | 30.13369 | -81.37458 | 36984 ft | 430 kts | 348° |
| 2026-05-07 01:09 | 30.19300 | -81.37797 | 37060 ft | 428 kts | 348° |
| 2026-05-07 01:10 | 30.25238 | -81.38135 | 37058 ft | 427 kts | 348° |
| 2026-05-07 01:10 | 30.31168 | -81.38483 | 37063 ft | 427 kts | 348° |
| 2026-05-07 01:11 | 30.37105 | -81.38834 | 37064 ft | 427 kts | 348° |
| 2026-05-07 01:11 | 30.42997 | -81.39178 | 37064 ft | 427 kts | 348° |
| 2026-05-07 01:12 | 30.48939 | -81.39515 | 37062 ft | 427 kts | 348° |
| 2026-05-07 01:12 | 30.54877 | -81.39827 | 37071 ft | 427 kts | 348° |
| 2026-05-07 01:13 | 30.60812 | -81.40128 | 37070 ft | 427 kts | 348° |
| 2026-05-07 01:13 | 30.66746 | -81.40436 | 37070 ft | 427 kts | 348° |
| 2026-05-07 01:14 | 30.72648 | -81.40752 | 37067 ft | 428 kts | 349° |
| 2026-05-07 01:14 | 30.78594 | -81.41074 | 37050 ft | 428 kts | 349° |
| 2026-05-07 01:15 | 30.84553 | -81.41388 | 37038 ft | 429 kts | 349° |
| 2026-05-07 01:15 | 30.90475 | -81.41707 | 37034 ft | 429 kts | 349° |
| 2026-05-07 01:16 | 30.96439 | -81.42030 | 37041 ft | 430 kts | 349° |
| 2026-05-07 01:16 | 31.02418 | -81.42346 | 37035 ft | 430 kts | 349° |
| 2026-05-07 01:17 | 31.08410 | -81.42662 | 37037 ft | 431 kts | 349° |
| 2026-05-07 01:17 | 31.14404 | -81.42985 | 37036 ft | 431 kts | 349° |
| 2026-05-07 01:18 | 31.20356 | -81.43301 | 37048 ft | 431 kts | 349° |
| 2026-05-07 01:18 | 31.26422 | -81.42647 | 37065 ft | 452 kts | 8° |
| 2026-05-07 01:18 | 31.29391 | -81.41320 | 37056 ft | 463 kts | 17° |
| 2026-05-07 01:19 | 31.32308 | -81.39724 | 37049 ft | 463 kts | 17° |
| 2026-05-07 01:19 | 31.38160 | -81.36543 | 37039 ft | 464 kts | 17° |
| 2026-05-07 01:20 | 31.43983 | -81.33394 | 37036 ft | 464 kts | 17° |
| 2026-05-07 01:20 | 31.49853 | -81.30213 | 37029 ft | 465 kts | 17° |
| 2026-05-07 01:21 | 31.55727 | -81.27017 | 37055 ft | 466 kts | 17° |
| 2026-05-07 01:21 | 31.61607 | -81.23813 | 37050 ft | 466 kts | 17° |
| 2026-05-07 01:22 | 31.67442 | -81.20633 | 37032 ft | 466 kts | 17° |
| 2026-05-07 01:22 | 31.73311 | -81.17421 | 37027 ft | 465 kts | 17° |
| 2026-05-07 01:23 | 31.79183 | -81.14206 | 37033 ft | 465 kts | 16° |
| 2026-05-07 01:23 | 31.85054 | -81.10987 | 37022 ft | 466 kts | 16° |
| 2026-05-07 01:24 | 31.90894 | -81.07788 | 37017 ft | 466 kts | 16° |
| 2026-05-07 01:24 | 31.96766 | -81.04558 | 37016 ft | 466 kts | 16° |
| 2026-05-07 01:25 | 32.02646 | -81.01306 | 37016 ft | 467 kts | 17° |
| 2026-05-07 01:25 | 32.08519 | -80.98021 | 37024 ft | 468 kts | 16° |
| 2026-05-07 01:26 | 32.09472 | -80.97488 | 37022 ft | 468 kts | 16° |
| 2026-05-07 01:26 | 32.20402 | -80.91359 | 37051 ft | 468 kts | 16° |
| 2026-05-07 01:27 | 32.26245 | -80.88074 | 37070 ft | 468 kts | 16° |
| 2026-05-07 01:27 | 32.32119 | -80.84767 | 37089 ft | 468 kts | 15° |
| 2026-05-07 01:28 | 32.37989 | -80.81459 | 37056 ft | 468 kts | 15° |
| 2026-05-07 01:28 | 32.43868 | -80.78149 | 37054 ft | 468 kts | 15° |
| 2026-05-07 01:29 | 32.49701 | -80.74863 | 37051 ft | 468 kts | 15° |
| 2026-05-07 01:29 | 32.55576 | -80.71547 | 37074 ft | 468 kts | 15° |
| 2026-05-07 01:30 | 32.61450 | -80.68217 | 37056 ft | 468 kts | 15° |
| 2026-05-07 01:30 | 32.67322 | -80.64878 | 37046 ft | 468 kts | 15° |
| 2026-05-07 01:31 | 32.73188 | -80.61529 | 37028 ft | 468 kts | 15° |
| 2026-05-07 01:31 | 32.78994 | -80.58104 | 37031 ft | 469 kts | 16° |
| 2026-05-07 01:32 | 32.84822 | -80.54602 | 37048 ft | 469 kts | 15° |
| 2026-05-07 01:32 | 32.90652 | -80.51105 | 37043 ft | 468 kts | 15° |
| 2026-05-07 01:33 | 32.96469 | -80.47643 | 37037 ft | 467 kts | 15° |
| 2026-05-07 01:33 | 33.02275 | -80.44190 | 37033 ft | 466 kts | 15° |
| 2026-05-07 01:34 | 33.08031 | -80.40751 | 37027 ft | 466 kts | 15° |
| 2026-05-07 01:34 | 33.13819 | -80.37282 | 37023 ft | 466 kts | 15° |
| 2026-05-07 01:35 | 33.19608 | -80.33810 | 37022 ft | 465 kts | 15° |
| 2026-05-07 01:35 | 33.25392 | -80.30344 | 37020 ft | 465 kts | 15° |
| 2026-05-07 01:36 | 33.31138 | -80.26895 | 37055 ft | 465 kts | 14° |
| 2026-05-07 01:36 | 33.36925 | -80.23414 | 37030 ft | 466 kts | 14° |
| 2026-05-07 01:37 | 33.42712 | -80.19917 | 37025 ft | 466 kts | 14° |
| 2026-05-07 01:37 | 33.48499 | -80.16415 | 37014 ft | 466 kts | 14° |
| 2026-05-07 01:38 | 33.54278 | -80.12922 | 37024 ft | 465 kts | 14° |
| 2026-05-07 01:38 | 33.60003 | -80.09454 | 37021 ft | 463 kts | 14° |
| 2026-05-07 01:39 | 33.65633 | -80.05557 | 37005 ft | 482 kts | 26° |
| 2026-05-07 01:39 | 33.70764 | -80.00230 | 37011 ft | 488 kts | 30° |
| 2026-05-07 01:40 | 33.75876 | -79.94847 | 36991 ft | 489 kts | 30° |
| 2026-05-07 01:40 | 33.80959 | -79.89500 | 37032 ft | 489 kts | 30° |
| 2026-05-07 01:41 | 33.86086 | -79.84122 | 37017 ft | 489 kts | 30° |
| 2026-05-07 01:41 | 33.91209 | -79.78726 | 37002 ft | 490 kts | 30° |
| 2026-05-07 01:42 | 33.95461 | -79.74234 | 36998 ft | 489 kts | 30° |
| 2026-05-07 01:42 | 34.00570 | -79.68835 | 37013 ft | 488 kts | 30° |
| 2026-05-07 01:43 | 34.06493 | -79.62557 | 37003 ft | 487 kts | 30° |
| 2026-05-07 01:43 | 34.11565 | -79.57168 | 36998 ft | 486 kts | 30° |
| 2026-05-07 01:44 | 34.15784 | -79.52685 | 37001 ft | 486 kts | 30° |
| 2026-05-07 01:44 | 34.20858 | -79.47289 | 37002 ft | 486 kts | 30° |
| 2026-05-07 01:45 | 34.25934 | -79.41881 | 36991 ft | 486 kts | 30° |
| 2026-05-07 01:45 | 34.30996 | -79.36475 | 37021 ft | 484 kts | 31° |
| 2026-05-07 01:46 | 34.36040 | -79.31081 | 37007 ft | 484 kts | 31° |
| 2026-05-07 01:46 | 34.41049 | -79.25738 | 37001 ft | 482 kts | 29° |
| 2026-05-07 01:46 | 34.43717 | -79.23380 | 36998 ft | 467 kts | 19° |
| 2026-05-07 01:47 | 34.46542 | -79.21544 | 36990 ft | 458 kts | 14° |
| 2026-05-07 01:47 | 34.52241 | -79.18081 | 37013 ft | 459 kts | 14° |
| 2026-05-07 01:48 | 34.57950 | -79.14599 | 37000 ft | 460 kts | 15° |
| 2026-05-07 01:48 | 34.63661 | -79.11103 | 36988 ft | 460 kts | 15° |
| 2026-05-07 01:49 | 34.69340 | -79.07615 | 36989 ft | 461 kts | 15° |
| 2026-05-07 01:49 | 34.75061 | -79.04090 | 36998 ft | 461 kts | 15° |
| 2026-05-07 01:50 | 34.80790 | -79.00563 | 36993 ft | 461 kts | 14° |
| 2026-05-07 01:50 | 34.86524 | -78.97038 | 36986 ft | 462 kts | 14° |
| 2026-05-07 01:51 | 34.92264 | -78.93494 | 36989 ft | 463 kts | 14° |
| 2026-05-07 01:51 | 34.97976 | -78.89974 | 36990 ft | 463 kts | 14° |
| 2026-05-07 01:52 | 35.03728 | -78.86414 | 37004 ft | 464 kts | 14° |
| 2026-05-07 01:52 | 35.09496 | -78.82835 | 36976 ft | 465 kts | 14° |
| 2026-05-07 01:53 | 35.15263 | -78.79253 | 36971 ft | 466 kts | 14° |
| 2026-05-07 01:53 | 35.21044 | -78.75658 | 36973 ft | 466 kts | 14° |
| 2026-05-07 01:54 | 35.26789 | -78.72074 | 37010 ft | 467 kts | 13° |
| 2026-05-07 01:54 | 35.32586 | -78.68465 | 36996 ft | 468 kts | 13° |
| 2026-05-07 01:55 | 35.38388 | -78.64843 | 36995 ft | 468 kts | 14° |
| 2026-05-07 01:55 | 35.44189 | -78.61203 | 36998 ft | 468 kts | 14° |
| 2026-05-07 01:56 | 35.49986 | -78.57563 | 36981 ft | 468 kts | 14° |
| 2026-05-07 01:56 | 35.55785 | -78.53929 | 36983 ft | 468 kts | 14° |
| 2026-05-07 01:57 | 35.61578 | -78.50288 | 36983 ft | 468 kts | 14° |
| 2026-05-07 01:57 | 35.67330 | -78.46663 | 36983 ft | 468 kts | 14° |
| 2026-05-07 01:58 | 35.72466 | -78.43424 | 36979 ft | 469 kts | 13° |
| 2026-05-07 01:58 | 35.78280 | -78.39752 | 36959 ft | 470 kts | 13° |
| 2026-05-07 01:59 | 35.84099 | -78.36081 | 36956 ft | 471 kts | 13° |
| 2026-05-07 01:59 | 35.89932 | -78.32394 | 36975 ft | 471 kts | 13° |
| 2026-05-07 02:00 | 35.95764 | -78.28679 | 36993 ft | 472 kts | 13° |